createdAt,value
2019-04-22T00:00:59.537Z,74.74
2019-04-22T00:03:37.768Z,74.80
2019-04-22T00:06:32.116Z,74.84
2019-04-22T00:09:05.521Z,74.99
2019-04-22T00:11:35.416Z,75.02
2019-04-22T00:14:10.563Z,75.11
2019-04-22T00:16:53.601Z,74.96
2019-04-22T00:19:22.716Z,74.85
2019-04-22T00:22:00.639Z,74.94
2019-04-22T00:24:24.246Z,75.00
2019-04-22T00:27:04.121Z,75.00
2019-04-22T00:29:49.829Z,74.99
2019-04-22T00:32:21.288Z,75.21
2019-04-22T00:34:53.732Z,75.40
2019-04-22T00:37:32.759Z,75.33
2019-04-22T00:40:07.223Z,75.37
2019-04-22T00:42:40.928Z,75.48
2019-04-22T00:45:13.093Z,75.73
2019-04-22T00:48:00.715Z,75.95
2019-04-22T00:50:22.416Z,76.18
2019-04-22T00:52:59.809Z,76.37
2019-04-22T00:55:29.259Z,76.47
2019-04-22T00:58:05.180Z,76.54
2019-04-22T01:00:37.678Z,76.62
2019-04-22T01:03:13.401Z,76.73
2019-04-22T01:05:46.869Z,76.83
2019-04-22T01:08:23.545Z,76.81
2019-04-22T01:10:54.019Z,76.83
2019-04-22T01:13:27.665Z,76.92
2019-04-22T01:16:01.253Z,76.98
2019-04-22T01:18:29.338Z,77.04
2019-04-22T01:21:16.385Z,76.99
2019-04-22T01:23:43.807Z,76.84
2019-04-22T01:26:13.953Z,76.80
2019-04-22T01:28:43.424Z,76.81
2019-04-22T01:31:10.203Z,76.75
2019-04-22T01:33:43.898Z,76.84
2019-04-22T01:36:31.158Z,76.97
2019-04-22T01:39:09.381Z,77.05
2019-04-22T01:41:48.786Z,77.11
2019-04-22T01:44:22.196Z,77.13
2019-04-22T01:46:50.605Z,77.28
2019-04-22T01:49:27.557Z,77.39
2019-04-22T01:54:35.447Z,77.65
2019-04-22T01:57:07.526Z,77.77
2019-04-22T01:59:31.510Z,77.88
2019-04-22T02:02:13.414Z,77.89
2019-04-22T02:04:51.406Z,78.05
2019-04-22T02:12:25.650Z,78.31
2019-04-22T02:14:59.421Z,78.27
2019-04-22T02:17:37.214Z,78.26
2019-04-22T02:23:40.279Z,78.28
2019-04-22T02:25:56.081Z,78.26
2019-04-22T02:28:55.194Z,78.19
2019-04-22T02:31:20.048Z,78.29
2019-04-22T02:44:04.121Z,79.20
2019-04-22T02:51:40.336Z,79.70
2019-04-22T03:01:53.189Z,80.24
2019-04-22T03:04:29.997Z,80.31
2019-04-22T03:06:43.060Z,80.27
2019-04-22T03:09:33.742Z,80.18
2019-04-22T03:12:21.708Z,80.18
2019-04-22T03:14:38.057Z,80.15
2019-04-22T03:17:11.241Z,80.08
2019-04-22T03:20:02.024Z,80.01
2019-04-22T03:22:19.210Z,79.96
2019-04-22T03:25:06.124Z,79.91
2019-04-22T03:37:50.581Z,79.41
2019-04-22T03:48:05.558Z,78.94
2019-04-22T03:50:57.547Z,78.86
2019-04-22T03:53:15.126Z,78.83
2019-04-22T03:55:59.778Z,78.80
2019-04-22T03:58:21.563Z,78.71
2019-04-22T04:03:30.571Z,78.42
2019-04-22T04:06:00.316Z,78.25
2019-04-22T04:11:29.962Z,77.97
2019-04-22T04:13:52.131Z,77.85
2019-04-22T04:16:21.423Z,77.70
2019-04-22T04:19:13.898Z,77.40
2019-04-22T04:21:41.239Z,77.10
2019-04-22T04:24:32.816Z,76.81
2019-04-22T04:29:28.343Z,76.13
2019-04-22T04:31:54.562Z,75.76
2019-04-22T04:34:37.063Z,75.40
2019-04-22T04:36:57.833Z,75.00
2019-04-22T04:39:25.826Z,74.54
2019-04-22T04:42:05.121Z,73.55
2019-04-22T04:44:48.291Z,73.55
2019-04-22T04:49:43.931Z,72.68
2019-04-22T04:52:25.170Z,72.47
2019-04-22T04:54:48.400Z,72.16
2019-04-22T04:57:26.035Z,71.50
2019-04-22T05:00:25.739Z,70.91
2019-04-22T05:02:30.985Z,70.06
2019-04-22T05:07:36.171Z,68.93
2019-04-22T05:10:10.823Z,68.47
2019-04-22T05:12:52.961Z,67.83
2019-04-22T05:15:18.407Z,67.31
2019-04-22T05:17:55.006Z,67.09
2019-04-22T05:20:44.926Z,66.69
2019-04-22T05:22:59.457Z,65.98
2019-04-22T05:25:22.249Z,65.48
2019-04-22T05:27:57.577Z,64.90
2019-04-22T05:30:32.058Z,64.28
2019-04-22T05:33:08.462Z,63.48
2019-04-22T05:35:42.437Z,63.03
2019-04-22T05:38:17.463Z,62.80
2019-04-22T05:40:40.847Z,62.36
2019-04-22T05:43:21.317Z,62.00
2019-04-22T05:45:54.464Z,61.88
2019-04-22T05:48:33.086Z,61.27
2019-04-22T05:51:04.465Z,60.26
2019-04-22T05:53:35.610Z,59.58
2019-04-22T05:56:17.119Z,57.52
2019-04-22T05:58:46.390Z,57.29
2019-04-22T06:03:54.650Z,55.58
2019-04-22T06:06:20.645Z,54.69
2019-04-22T06:08:57.572Z,53.67
2019-04-22T06:13:59.195Z,51.41
2019-04-22T06:16:43.153Z,50.54
2019-04-22T06:21:41.795Z,44.43
2019-04-22T06:29:27.120Z,40.44
2019-04-22T06:32:17.550Z,41.55
2019-04-22T06:34:35.858Z,41.00
2019-04-22T06:39:39.702Z,37.35
2019-04-22T06:42:19.568Z,38.51
2019-04-22T06:44:45.708Z,37.45
2019-04-22T06:47:27.154Z,36.87
2019-04-22T06:49:55.737Z,36.24
2019-04-22T06:52:22.030Z,36.47
2019-04-22T06:54:59.842Z,35.51
2019-04-22T06:57:39.444Z,36.47
2019-04-22T07:00:14.253Z,35.90
2019-04-22T07:02:56.388Z,34.65
2019-04-22T07:05:17.373Z,34.95
2019-04-22T07:07:45.540Z,33.81
2019-04-22T07:10:30.197Z,32.74
2019-04-22T07:12:56.870Z,32.10
2019-04-22T07:15:44.147Z,32.31
2019-04-22T07:18:03.058Z,32.27
2019-04-22T07:20:39.948Z,32.71
2019-04-22T07:23:13.615Z,32.71
2019-04-22T07:25:41.387Z,31.44
2019-04-22T07:28:17.634Z,31.21
2019-04-22T07:30:56.136Z,31.32
2019-04-22T07:33:27.877Z,29.99
2019-04-22T07:36:32.162Z,30.99
2019-04-22T07:38:26.809Z,31.83
2019-04-22T07:40:59.239Z,31.01
2019-04-22T07:43:51.640Z,32.14
2019-04-22T07:46:27.289Z,32.05
2019-04-22T07:48:45.097Z,33.21
2019-04-22T07:51:23.598Z,31.47
2019-04-22T07:53:52.315Z,32.83
2019-04-22T07:56:24.599Z,32.34
2019-04-22T07:58:56.881Z,33.26
2019-04-22T08:01:30.837Z,33.80
2019-04-22T08:06:46.013Z,33.45
2019-04-22T08:09:13.806Z,32.49
2019-04-22T08:11:49.928Z,33.29
2019-04-22T08:14:24.201Z,32.29
2019-04-22T08:17:01.538Z,31.67
2019-04-22T08:19:35.651Z,31.44
2019-04-22T08:24:45.649Z,32.04
2019-04-22T08:29:48.729Z,30.85
2019-04-22T08:32:15.548Z,30.35
2019-04-22T08:34:42.631Z,31.10
2019-04-22T08:40:01.641Z,31.88
2019-04-22T08:42:36.566Z,31.58
2019-04-22T08:47:39.131Z,30.31
2019-04-22T08:50:21.938Z,30.22
2019-04-22T08:52:42.067Z,31.56
2019-04-22T08:55:22.999Z,29.36
2019-04-22T08:58:10.097Z,30.28
2019-04-22T09:00:20.308Z,30.08
2019-04-22T09:03:02.227Z,30.32
2019-04-22T09:05:42.306Z,32.20
2019-04-22T09:08:07.366Z,30.82
2019-04-22T09:10:37.911Z,31.51
2019-04-22T09:13:10.219Z,30.45
2019-04-22T09:15:42.475Z,31.26
2019-04-22T09:18:19.399Z,27.40
2019-04-22T09:21:04.717Z,26.63
2019-04-22T09:25:59.908Z,26.94
2019-04-22T09:28:33.204Z,27.39
2019-04-22T09:31:09.360Z,27.99
2019-04-22T09:33:36.880Z,28.22
2019-04-22T09:36:16.504Z,27.94
2019-04-22T09:38:41.119Z,28.82
2019-04-22T09:41:22.737Z,26.84
2019-04-22T09:43:53.455Z,26.00
2019-04-22T09:46:32.832Z,26.42
2019-04-22T09:51:32.149Z,25.88
2019-04-22T09:54:18.011Z,25.48
2019-04-22T09:59:14.034Z,26.99
2019-04-22T10:01:49.063Z,26.04
2019-04-22T10:04:10.931Z,25.63
2019-04-22T10:06:50.110Z,25.79
2019-04-22T10:09:46.971Z,26.68
2019-04-22T10:12:02.234Z,26.21
2019-04-22T10:17:07.782Z,26.78
2019-04-22T10:19:43.926Z,25.70
2019-04-22T10:22:19.906Z,26.55
2019-04-22T10:24:44.648Z,27.34
2019-04-22T10:27:23.894Z,25.69
2019-04-22T10:32:27.172Z,28.08
2019-04-22T10:34:48.638Z,27.55
2019-04-22T10:37:18.074Z,27.42
2019-04-22T10:39:56.229Z,24.65
2019-04-22T10:42:23.135Z,24.17
2019-04-22T10:44:55.588Z,25.32
2019-04-22T10:47:28.042Z,26.53
2019-04-22T10:50:00.681Z,26.38
2019-04-22T10:52:32.462Z,24.58
2019-04-22T10:55:07.552Z,25.88
2019-04-22T10:57:40.916Z,25.25
2019-04-22T11:00:15.657Z,25.30
2019-04-22T11:02:49.816Z,23.72
2019-04-22T11:05:22.017Z,24.87
2019-04-22T11:07:59.396Z,23.59
2019-04-22T11:10:45.532Z,23.87
2019-04-22T11:13:07.170Z,25.54
2019-04-22T11:15:40.493Z,25.04
2019-04-22T11:18:13.484Z,25.10
2019-04-22T11:20:45.147Z,23.26
2019-04-22T11:23:16.894Z,23.68
2019-04-22T11:25:49.920Z,25.77
2019-04-22T11:28:22.000Z,26.28
2019-04-22T11:30:54.781Z,26.89
2019-04-22T11:33:27.715Z,26.77
2019-04-22T11:36:00.025Z,26.39
2019-04-22T11:38:32.963Z,26.17
2019-04-22T11:41:05.532Z,25.64
2019-04-22T11:43:41.054Z,26.06
2019-04-22T11:46:13.572Z,23.94
2019-04-22T11:48:45.701Z,22.97
2019-04-22T11:51:18.215Z,23.81
2019-04-22T11:53:50.183Z,24.20
2019-04-22T11:56:22.931Z,23.93
2019-04-22T11:58:55.176Z,24.03
2019-04-22T12:01:28.632Z,23.78
2019-04-22T12:04:02.157Z,24.13
2019-04-22T12:06:35.834Z,23.94
2019-04-22T12:09:12.122Z,25.65
2019-04-22T12:11:44.408Z,24.68
2019-04-22T12:14:16.360Z,24.67
2019-04-22T12:16:49.630Z,23.98
2019-04-22T12:19:21.399Z,23.39
2019-04-22T12:21:53.472Z,23.81
2019-04-22T12:24:25.311Z,24.48
2019-04-22T12:26:58.053Z,23.39
2019-04-22T12:29:31.040Z,22.82
2019-04-22T12:32:03.275Z,24.40
2019-04-22T12:34:35.436Z,25.06
2019-04-22T12:37:08.701Z,23.77
2019-04-22T12:39:41.190Z,22.23
2019-04-22T12:42:13.151Z,23.16
2019-04-22T12:44:45.847Z,23.76
2019-04-22T12:47:18.126Z,23.76
2019-04-22T12:49:59.799Z,24.02
2019-04-22T12:52:32.349Z,24.78
2019-04-22T12:54:57.408Z,23.83
2019-04-22T12:57:30.267Z,22.78
2019-04-22T13:00:02.069Z,23.82
2019-04-22T13:02:36.706Z,21.77
2019-04-22T13:05:10.121Z,21.77
2019-04-22T13:07:41.918Z,21.83
2019-04-22T13:10:15.725Z,22.30
2019-04-22T13:12:48.795Z,22.80
2019-04-22T13:15:22.145Z,23.32
2019-04-22T13:18:06.036Z,23.44
2019-04-22T13:20:28.203Z,23.97
2019-04-22T13:23:00.051Z,24.45
2019-04-22T13:25:32.552Z,23.89
2019-04-22T13:28:04.983Z,24.55
2019-04-22T13:30:38.640Z,24.40
2019-04-22T13:33:10.806Z,24.88
2019-04-22T13:35:43.817Z,25.05
2019-04-22T13:38:17.162Z,25.48
2019-04-22T13:41:00.885Z,25.57
2019-04-22T13:43:22.892Z,25.21
2019-04-22T13:45:56.053Z,24.56
2019-04-22T13:48:46.250Z,23.43
2019-04-22T13:51:33.966Z,24.14
2019-04-22T13:56:31.480Z,23.40
2019-04-22T13:58:53.062Z,22.36
2019-04-22T14:01:16.587Z,21.56
2019-04-22T14:03:56.612Z,21.58
2019-04-22T14:06:29.104Z,21.68
2019-04-22T14:09:01.202Z,21.77
2019-04-22T14:11:41.559Z,21.85
2019-04-22T14:14:09.050Z,22.29
2019-04-22T14:16:41.096Z,22.29
2019-04-22T14:19:14.008Z,22.51
2019-04-22T14:21:47.471Z,22.71
2019-04-22T14:24:19.823Z,23.07
2019-04-22T14:27:09.422Z,23.38
2019-04-22T14:29:26.010Z,24.42
2019-04-22T14:32:05.265Z,24.56
2019-04-22T14:34:32.147Z,23.94
2019-04-22T14:37:05.485Z,23.27
2019-04-22T14:39:38.024Z,24.22
2019-04-22T14:42:28.372Z,23.84
2019-04-22T14:45:20.239Z,23.93
2019-04-22T14:47:39.775Z,23.94
2019-04-22T14:50:16.241Z,24.68
2019-04-22T14:52:46.251Z,25.51
2019-04-22T14:55:05.961Z,25.14
2019-04-22T14:57:31.753Z,24.81
2019-04-22T15:00:06.125Z,26.07
2019-04-22T15:02:39.428Z,26.79
2019-04-22T15:05:12.280Z,24.22
2019-04-22T15:07:44.639Z,24.37
2019-04-22T15:10:18.069Z,24.51
2019-04-22T15:12:53.423Z,24.41
2019-04-22T15:15:40.550Z,23.97
2019-04-22T15:18:13.526Z,24.20
2019-04-22T15:20:52.404Z,23.91
2019-04-22T15:23:24.655Z,23.67
2019-04-22T15:25:56.792Z,24.82
2019-04-22T15:28:29.264Z,24.47
2019-04-22T15:31:01.573Z,24.80
2019-04-22T15:33:33.446Z,25.63
2019-04-22T15:36:05.843Z,24.74
2019-04-22T15:38:38.343Z,24.36
2019-04-22T15:41:10.434Z,24.36
2019-04-22T15:43:43.582Z,25.27
2019-04-22T15:46:15.948Z,25.89
2019-04-22T15:48:48.446Z,26.10
2019-04-22T15:51:20.729Z,26.80
2019-04-22T15:53:53.805Z,27.15
2019-04-22T15:56:26.559Z,26.40
2019-04-22T15:58:59.701Z,26.83
2019-04-22T16:01:44.727Z,27.00
2019-04-22T16:04:16.971Z,26.32
2019-04-22T16:06:49.381Z,27.27
2019-04-22T16:09:22.631Z,27.76
2019-04-22T16:11:54.825Z,27.54
2019-04-22T16:14:32.808Z,28.02
2019-04-22T16:17:00.851Z,28.70
2019-04-22T16:19:33.005Z,28.89
2019-04-22T16:22:09.342Z,29.76
2019-04-22T16:24:45.968Z,30.53
2019-04-22T16:27:20.789Z,31.01
2019-04-22T16:29:52.602Z,31.64
2019-04-22T16:32:25.553Z,32.21
2019-04-22T16:34:58.721Z,32.52
2019-04-22T16:37:30.644Z,32.87
2019-04-22T16:40:03.145Z,33.34
2019-04-22T16:42:43.254Z,33.65
2019-04-22T16:45:09.435Z,34.07
2019-04-22T16:47:42.172Z,34.46
2019-04-22T16:50:15.928Z,34.54
2019-04-22T16:52:48.255Z,34.83
2019-04-22T16:55:21.211Z,35.17
2019-04-22T16:57:54.590Z,35.58
2019-04-22T17:00:27.021Z,36.09
2019-04-22T17:03:10.815Z,36.36
2019-04-22T17:05:45.648Z,36.65
2019-04-22T17:08:18.481Z,37.16
2019-04-22T17:10:51.673Z,37.21
2019-04-22T17:13:28.369Z,37.45
2019-04-22T17:16:00.480Z,37.66
2019-04-22T17:18:32.947Z,37.68
2019-04-22T17:21:08.183Z,37.92
2019-04-22T17:23:38.966Z,37.92
2019-04-22T17:26:12.435Z,38.63
2019-04-22T17:28:45.754Z,39.55
2019-04-22T17:31:18.580Z,40.34
2019-04-22T17:33:53.020Z,40.88
2019-04-22T17:36:26.412Z,41.16
2019-04-22T17:39:15.840Z,41.45
2019-04-22T17:41:50.586Z,42.05
2019-04-22T17:44:37.734Z,42.05
2019-04-22T17:47:02.518Z,42.05
2019-04-22T17:49:50.490Z,41.86
2019-04-22T17:52:23.175Z,41.98
2019-04-22T17:54:50.559Z,41.90
2019-04-22T17:57:24.125Z,42.40
2019-04-22T17:59:55.275Z,43.13
2019-04-22T18:02:26.837Z,43.60
2019-04-22T18:04:53.340Z,44.33
2019-04-22T18:07:38.584Z,45.05
2019-04-22T18:10:27.476Z,45.82
2019-04-22T18:12:50.102Z,46.54
2019-04-22T18:15:19.115Z,47.16
2019-04-22T18:18:00.530Z,48.32
2019-04-22T18:20:23.874Z,49.56
2019-04-22T18:22:54.774Z,50.53
2019-04-22T18:25:33.895Z,50.88
2019-04-22T18:30:37.328Z,51.35
2019-04-22T18:33:19.062Z,51.94
2019-04-22T18:35:49.181Z,52.67
2019-04-22T18:38:33.004Z,52.99
2019-04-22T18:41:01.634Z,52.94
2019-04-22T18:43:33.937Z,53.08
2019-04-22T18:46:12.420Z,53.18
2019-04-22T18:48:46.106Z,53.70
2019-04-22T18:51:24.720Z,53.54
2019-04-22T18:53:53.993Z,53.37
2019-04-22T18:56:32.490Z,53.77
2019-04-22T18:58:53.473Z,53.89
2019-04-22T19:01:17.725Z,53.97
2019-04-22T19:03:58.096Z,54.16
2019-04-22T19:06:50.536Z,54.32
2019-04-22T19:09:21.088Z,53.62
2019-04-22T19:12:03.162Z,53.95
2019-04-22T19:14:24.794Z,54.08
2019-04-22T19:17:05.917Z,53.98
2019-04-22T19:22:03.529Z,53.90
2019-04-22T19:24:37.200Z,53.97
2019-04-22T19:27:10.982Z,54.11
2019-04-22T19:29:54.458Z,54.22
2019-04-22T19:32:21.097Z,54.87
2019-04-22T19:34:54.145Z,55.07
2019-04-22T19:37:25.771Z,55.59
2019-04-22T19:40:09.483Z,55.90
2019-04-22T19:45:09.052Z,56.31
2019-04-22T19:47:43.592Z,56.57
2019-04-22T19:50:21.351Z,56.91
2019-04-22T19:52:44.705Z,57.25
2019-04-22T19:55:23.889Z,57.64
2019-04-22T19:57:55.448Z,57.80
2019-04-22T20:00:31.656Z,57.87
2019-04-22T20:03:18.599Z,57.93
2019-04-22T20:05:53.066Z,57.96
2019-04-22T20:08:36.704Z,58.05
2019-04-22T20:11:03.957Z,58.22
2019-04-22T20:13:37.175Z,58.25
2019-04-22T20:15:56.077Z,58.43
2019-04-22T20:21:17.952Z,59.77
2019-04-22T20:23:39.670Z,60.51
2019-04-22T20:26:12.521Z,61.07
2019-04-22T20:28:52.727Z,61.42
2019-04-22T20:31:24.812Z,61.63
2019-04-22T20:34:04.644Z,62.13
2019-04-22T20:36:53.552Z,62.72
2019-04-22T20:39:03.546Z,63.12
2019-04-22T20:41:36.734Z,63.26
2019-04-22T20:44:16.351Z,63.42
2019-04-22T20:46:44.927Z,63.62
2019-04-22T20:49:25.383Z,63.73
2019-04-22T20:54:28.446Z,63.57
2019-04-22T20:56:55.031Z,64.32
2019-04-22T20:59:32.945Z,64.86
2019-04-22T21:02:03.446Z,65.35
2019-04-22T21:04:35.891Z,65.70
2019-04-22T21:07:13.837Z,66.03
2019-04-22T21:09:52.415Z,66.37
2019-04-22T21:12:18.937Z,66.66
2019-04-22T21:15:03.563Z,66.91
2019-04-22T21:17:30.964Z,67.07
2019-04-22T21:20:14.075Z,67.21
2019-04-22T21:22:38.398Z,67.38
2019-04-22T21:25:07.519Z,67.61
2019-04-22T21:27:51.139Z,68.01
2019-04-22T21:30:19.489Z,68.35
2019-04-22T21:32:52.083Z,68.47
2019-04-22T21:35:47.242Z,68.66
2019-04-22T21:38:11.316Z,68.81
2019-04-22T21:40:38.367Z,69.07
2019-04-22T21:43:16.232Z,69.28
2019-04-22T21:45:37.640Z,69.43
2019-04-22T21:48:27.993Z,69.52
2019-04-22T21:53:31.284Z,69.53
2019-04-22T21:56:11.857Z,69.71
2019-04-22T21:58:41.301Z,69.96
2019-04-22T22:01:18.896Z,70.34
2019-04-22T22:03:52.280Z,70.51
2019-04-22T22:06:16.629Z,70.77
2019-04-22T22:08:56.798Z,71.07
2019-04-22T22:11:27.793Z,71.46
2019-04-22T22:14:04.628Z,71.74
2019-04-22T22:16:31.599Z,71.91
2019-04-22T22:19:10.948Z,71.83
2019-04-22T22:21:53.197Z,72.12
2019-04-22T22:24:34.343Z,72.36
2019-04-22T22:26:50.387Z,72.50
2019-04-22T22:29:38.272Z,72.62
2019-04-22T22:31:58.156Z,72.68
2019-04-22T22:34:26.658Z,72.72
2019-04-22T22:36:56.088Z,72.87
2019-04-22T22:39:30.993Z,73.12
2019-04-22T22:41:52.018Z,73.24
2019-04-22T22:44:30.318Z,73.31
2019-04-22T22:47:16.069Z,73.27
2019-04-22T22:49:54.630Z,73.16
2019-04-22T22:54:58.937Z,72.70
2019-04-22T23:00:03.766Z,72.78
2019-04-22T23:02:46.928Z,72.81
2019-04-22T23:05:16.876Z,73.00
2019-04-22T23:07:54.236Z,73.33
2019-04-22T23:10:16.086Z,73.56
2019-04-22T23:13:05.345Z,73.81
2019-04-22T23:15:24.991Z,74.13
2019-04-22T23:17:43.706Z,74.13
2019-04-22T23:20:18.521Z,74.25
2019-04-22T23:23:13.802Z,74.48
2019-04-22T23:25:49.955Z,74.63
2019-04-22T23:28:19.290Z,74.84
2019-04-22T23:30:46.375Z,75.03
2019-04-22T23:33:32.475Z,75.32
2019-04-22T23:36:06.386Z,75.53
2019-04-22T23:38:47.524Z,75.63
2019-04-22T23:44:15.938Z,75.81
2019-04-22T23:46:56.714Z,75.68
2019-04-22T23:49:26.736Z,75.44
2019-04-22T23:52:14.717Z,75.38
2019-04-22T23:54:52.400Z,75.53
2019-04-22T23:57:15.549Z,75.69
2019-04-22T23:59:57.201Z,75.80
